createdAt,value
2018-10-01T00:02:08.558Z,10.20
2018-10-01T00:04:36.630Z,10.20
2018-10-01T00:07:04.669Z,10.10
2018-10-01T00:09:32.775Z,10.20
2018-10-01T00:12:00.813Z,10.20
2018-10-01T00:14:28.945Z,10.10
2018-10-01T00:16:56.992Z,10.10
2018-10-01T00:19:30.913Z,10.00
2018-10-01T00:22:04.530Z,10.00
2018-10-01T00:24:32.596Z,10.00
2018-10-01T00:27:00.649Z,10.00
2018-10-01T00:29:28.742Z,10.00
2018-10-01T00:31:56.782Z,9.90
2018-10-01T00:34:24.847Z,9.90
2018-10-01T00:36:52.905Z,9.90
2018-10-01T00:39:20.982Z,9.90
2018-10-01T00:41:49.034Z,9.90
2018-10-01T00:44:17.162Z,9.80
2018-10-01T00:46:45.280Z,9.70
2018-10-01T00:49:13.357Z,9.70
2018-10-01T00:51:41.410Z,9.60
2018-10-01T00:54:09.501Z,9.60
2018-10-01T00:56:37.565Z,9.60
2018-10-01T00:59:05.621Z,9.60
2018-10-01T01:01:33.677Z,9.60
2018-10-01T01:04:01.722Z,9.60
2018-10-01T01:06:29.872Z,9.50
2018-10-01T01:08:57.928Z,9.50
2018-10-01T01:11:26.021Z,9.50
2018-10-01T01:13:54.078Z,9.50
2018-10-01T01:16:22.142Z,9.50
2018-10-01T01:18:50.181Z,9.40
2018-10-01T01:21:18.322Z,9.40
2018-10-01T01:23:46.349Z,9.30
2018-10-01T01:26:14.426Z,9.30
2018-10-01T01:28:42.456Z,9.30
2018-10-01T01:31:10.557Z,9.20
2018-10-01T01:33:38.601Z,9.30
2018-10-01T01:36:06.671Z,9.30
2018-10-01T01:38:34.770Z,9.30
2018-10-01T01:41:02.782Z,9.30
2018-10-01T01:43:30.883Z,9.20
2018-10-01T01:45:58.924Z,9.20
2018-10-01T01:48:26.957Z,9.20
2018-10-01T01:50:55.009Z,9.20
2018-10-01T01:53:23.147Z,9.30
2018-10-01T01:55:51.217Z,9.20
2018-10-01T01:58:19.277Z,9.10
2018-10-01T02:00:47.470Z,9.10
2018-10-01T02:03:15.502Z,9.00
2018-10-01T02:05:43.618Z,9.00
2018-10-01T02:08:11.637Z,9.00
2018-10-01T02:10:39.753Z,9.10
2018-10-01T02:13:07.772Z,9.10
2018-10-01T02:15:35.960Z,9.20
2018-10-01T02:18:04.061Z,9.20
2018-10-01T02:20:32.261Z,9.30
2018-10-01T02:23:00.315Z,9.30
2018-10-01T02:25:28.418Z,9.30
2018-10-01T02:27:56.442Z,9.30
2018-10-01T02:30:24.513Z,9.30
2018-10-01T02:32:52.749Z,9.20
2018-10-01T02:35:20.881Z,9.20
2018-10-01T02:37:48.926Z,9.20
2018-10-01T02:40:17.107Z,9.00
2018-10-01T02:42:45.137Z,8.90
2018-10-01T02:45:13.220Z,8.80
2018-10-01T02:47:41.320Z,8.70
2018-10-01T02:50:09.323Z,8.60
2018-10-01T02:52:42.811Z,8.60
2018-10-01T02:55:10.875Z,8.50
2018-10-01T02:57:38.932Z,8.40
2018-10-01T03:00:08.038Z,8.30
2018-10-01T03:02:36.107Z,8.20
2018-10-01T03:05:04.172Z,8.20
2018-10-01T03:07:32.246Z,8.10
2018-10-01T03:10:00.329Z,8.10
2018-10-01T03:12:28.434Z,8.10
2018-10-01T03:14:56.452Z,8.10
2018-10-01T03:17:24.645Z,8.10
2018-10-01T03:19:52.716Z,8.10
2018-10-01T03:22:20.783Z,8.10
2018-10-01T03:24:48.820Z,8.10
2018-10-01T03:27:16.937Z,8.10
2018-10-01T03:29:45.010Z,8.10
2018-10-01T03:32:13.216Z,8.00
2018-10-01T03:34:41.559Z,8.00
2018-10-01T03:37:09.632Z,7.90
2018-10-01T03:39:37.697Z,7.90
2018-10-01T03:42:05.783Z,7.90
2018-10-01T03:44:33.870Z,7.90
2018-10-01T03:47:01.952Z,7.90
2018-10-01T03:49:30.097Z,7.90
2018-10-01T03:51:58.286Z,7.90
2018-10-01T03:54:26.350Z,7.90
2018-10-01T03:56:54.440Z,7.90
2018-10-01T03:59:22.490Z,7.90
2018-10-01T04:01:50.567Z,7.90
2018-10-01T04:04:18.654Z,7.80
2018-10-01T04:06:46.744Z,7.80
2018-10-01T04:09:14.801Z,7.80
2018-10-01T04:11:42.878Z,7.70
2018-10-01T04:14:10.913Z,7.70
2018-10-01T04:16:39.213Z,7.70
2018-10-01T04:19:07.261Z,7.60
2018-10-01T04:21:35.325Z,7.60
2018-10-01T04:24:03.370Z,7.60
2018-10-01T04:26:31.485Z,7.60
2018-10-01T04:28:59.545Z,7.60
2018-10-01T04:31:27.625Z,7.60
2018-10-01T04:33:55.719Z,7.70
2018-10-01T04:36:23.813Z,7.70
2018-10-01T04:38:51.970Z,7.80
2018-10-01T04:41:20.039Z,7.80
2018-10-01T04:43:48.078Z,7.80
2018-10-01T04:46:16.216Z,7.80
2018-10-01T04:48:44.285Z,7.80
2018-10-01T04:51:12.316Z,7.70
2018-10-01T04:53:40.507Z,7.70
2018-10-01T04:56:08.777Z,7.60
2018-10-01T04:58:36.967Z,7.60
2018-10-01T05:01:04.893Z,7.60
2018-10-01T05:03:32.969Z,7.60
2018-10-01T05:06:01.208Z,7.60
2018-10-01T05:08:29.273Z,7.60
2018-10-01T05:10:57.733Z,7.60
2018-10-01T05:13:25.833Z,7.60
2018-10-01T05:15:53.863Z,7.60
2018-10-01T05:18:21.948Z,7.60
2018-10-01T05:20:49.965Z,7.70
2018-10-01T05:23:18.189Z,7.60
2018-10-01T05:25:46.441Z,7.70
2018-10-01T05:28:15.118Z,7.60
2018-10-01T05:30:43.218Z,7.60
2018-10-01T05:33:11.496Z,7.60
2018-10-01T05:35:39.549Z,7.70
2018-10-01T05:38:07.601Z,7.70
2018-10-01T05:40:35.641Z,7.70
2018-10-01T05:43:03.797Z,7.80
2018-10-01T05:45:31.821Z,7.90
2018-10-01T05:47:59.947Z,7.90
2018-10-01T05:50:28.000Z,8.00
2018-10-01T05:52:56.052Z,8.10
2018-10-01T05:55:24.104Z,8.10
2018-10-01T05:57:52.255Z,8.20
2018-10-01T06:00:20.178Z,8.30
2018-10-01T06:02:48.249Z,8.30
2018-10-01T06:05:16.292Z,8.40
2018-10-01T06:07:44.377Z,8.50
2018-10-01T06:10:12.489Z,8.50
2018-10-01T06:12:40.542Z,8.60
2018-10-01T06:15:08.990Z,8.60
2018-10-01T06:17:37.117Z,8.60
2018-10-01T06:20:05.238Z,8.70
2018-10-01T06:22:33.317Z,8.70
2018-10-01T06:25:01.389Z,8.70
2018-10-01T06:27:29.457Z,8.80
2018-10-01T06:29:57.516Z,8.80
2018-10-01T06:32:25.572Z,8.90
2018-10-01T06:34:53.719Z,8.90
2018-10-01T06:37:21.837Z,8.90
2018-10-01T06:39:50.081Z,8.90
2018-10-01T06:42:18.142Z,9.00
2018-10-01T06:44:46.191Z,9.00
2018-10-01T06:47:14.336Z,9.10
2018-10-01T06:49:42.405Z,9.20
2018-10-01T06:52:10.429Z,9.20
2018-10-01T06:54:38.537Z,9.20
2018-10-01T06:57:06.589Z,9.30
2018-10-01T06:59:34.681Z,9.40
2018-10-01T07:02:02.720Z,9.40
2018-10-01T07:04:30.790Z,9.50
2018-10-01T07:06:58.873Z,9.50
2018-10-01T07:09:26.967Z,9.70
2018-10-01T07:11:55.028Z,9.90
2018-10-01T07:14:23.105Z,10.00
2018-10-01T07:16:51.182Z,10.10
2018-10-01T07:19:19.218Z,10.20
2018-10-01T07:21:47.296Z,10.30
2018-10-01T07:24:15.492Z,10.40
2018-10-01T07:26:43.553Z,10.50
2018-10-01T07:29:11.722Z,10.70
2018-10-01T07:31:39.781Z,10.80
2018-10-01T07:34:07.844Z,11.00
2018-10-01T07:36:35.891Z,11.10
2018-10-01T07:39:05.673Z,11.30
2018-10-01T07:41:33.706Z,11.60
2018-10-01T07:44:01.794Z,11.70
2018-10-01T07:46:29.837Z,11.80
2018-10-01T07:48:57.942Z,11.90
2018-10-01T07:51:26.024Z,12.10
2018-10-01T07:53:54.128Z,12.10
2018-10-01T07:56:22.161Z,12.10
2018-10-01T07:58:50.264Z,12.20
2018-10-01T08:01:18.351Z,12.20
2018-10-01T08:03:46.410Z,12.00
2018-10-01T08:06:14.585Z,11.90
2018-10-01T08:08:42.733Z,11.90
2018-10-01T08:11:10.705Z,11.90
2018-10-01T08:13:38.760Z,11.90
2018-10-01T08:16:06.814Z,11.90
2018-10-01T08:18:34.950Z,11.90
2018-10-01T08:21:03.090Z,11.80
2018-10-01T08:23:31.229Z,11.80
2018-10-01T08:25:59.260Z,11.70
2018-10-01T08:28:27.345Z,11.70
2018-10-01T08:30:55.420Z,11.60
2018-10-01T08:33:23.450Z,11.70
2018-10-01T08:35:51.590Z,11.70
2018-10-01T08:38:19.779Z,11.70
2018-10-01T08:40:47.713Z,11.60
2018-10-01T08:43:15.738Z,11.60
2018-10-01T08:45:43.806Z,11.70
2018-10-01T08:48:13.082Z,11.80
2018-10-01T08:51:21.206Z,12.00
2018-10-01T08:53:53.475Z,12.20
2018-10-01T08:56:21.633Z,12.40
2018-10-01T08:58:49.614Z,12.40
2018-10-01T09:01:17.718Z,12.50
2018-10-01T09:03:45.745Z,12.70
2018-10-01T09:06:13.915Z,12.90
2018-10-01T09:08:41.986Z,13.00
2018-10-01T09:11:10.072Z,13.20
2018-10-01T09:13:38.133Z,13.20
2018-10-01T09:16:06.205Z,13.40
2018-10-01T09:18:34.370Z,13.40
2018-10-01T09:21:02.601Z,13.40
2018-10-01T09:23:30.900Z,13.40
2018-10-01T09:25:59.130Z,13.40
2018-10-01T09:28:27.167Z,13.50
2018-10-01T09:30:55.281Z,13.60
2018-10-01T09:33:23.325Z,13.70
2018-10-01T09:35:51.427Z,13.80
2018-10-01T09:38:19.559Z,14.00
2018-10-01T09:40:47.738Z,13.90
2018-10-01T09:43:15.785Z,13.70
2018-10-01T09:45:43.877Z,13.80
2018-10-01T09:48:11.923Z,13.90
2018-10-01T09:50:40.001Z,14.10
2018-10-01T09:53:08.109Z,14.40
2018-10-01T09:55:36.302Z,14.60
2018-10-01T09:58:04.388Z,15.00
2018-10-01T10:00:38.013Z,15.20
2018-10-01T10:03:06.044Z,15.30
2018-10-01T10:05:34.185Z,15.20
2018-10-01T10:08:02.297Z,15.40
2018-10-01T10:10:30.390Z,15.40
2018-10-01T10:12:58.377Z,15.40
2018-10-01T10:15:26.510Z,15.40
2018-10-01T10:17:54.671Z,15.30
2018-10-01T10:20:22.731Z,15.40
2018-10-01T10:22:50.767Z,15.40
2018-10-01T10:25:18.926Z,15.30
2018-10-01T10:27:47.046Z,15.40
2018-10-01T10:30:15.241Z,15.60
2018-10-01T10:32:43.324Z,15.50
2018-10-01T10:35:11.389Z,15.50
2018-10-01T10:37:39.425Z,15.80
2018-10-01T10:40:07.516Z,15.80
2018-10-01T10:42:35.551Z,15.80
2018-10-01T10:45:03.865Z,15.80
2018-10-01T10:47:32.185Z,16.20
2018-10-01T10:50:00.266Z,16.40
2018-10-01T10:52:28.897Z,16.40
2018-10-01T10:54:56.973Z,16.30
2018-10-01T10:57:25.038Z,16.40
2018-10-01T10:59:53.077Z,16.30
2018-10-01T11:02:21.213Z,16.20
2018-10-01T11:04:49.174Z,16.20
2018-10-01T11:07:17.477Z,16.20
2018-10-01T11:09:45.474Z,16.30
2018-10-01T11:12:13.573Z,16.30
2018-10-01T11:14:41.748Z,16.20
2018-10-01T11:17:09.730Z,16.10
2018-10-01T11:19:37.818Z,16.20
2018-10-01T11:22:06.106Z,16.00
2018-10-01T11:24:34.148Z,16.20
2018-10-01T11:27:02.223Z,16.30
2018-10-01T11:29:30.332Z,16.00
2018-10-01T11:31:58.639Z,15.60
2018-10-01T11:34:26.837Z,15.30
2018-10-01T11:36:54.885Z,15.10
2018-10-01T11:39:23.042Z,14.80
2018-10-01T11:41:51.088Z,14.60
2018-10-01T11:44:19.150Z,14.50
2018-10-01T11:46:47.437Z,14.40
2018-10-01T11:49:15.499Z,14.40
2018-10-01T11:51:43.829Z,14.50
2018-10-01T11:54:11.682Z,14.50
2018-10-01T11:56:39.742Z,14.50
2018-10-01T11:59:07.815Z,14.70
2018-10-01T12:01:35.918Z,14.70
2018-10-01T12:04:04.054Z,14.50
2018-10-01T12:06:32.034Z,14.60
2018-10-01T12:09:00.197Z,14.60
2018-10-01T12:11:28.300Z,14.60
2018-10-01T12:13:56.320Z,14.60
2018-10-01T12:16:24.440Z,14.50
2018-10-01T12:18:52.525Z,14.40
2018-10-01T12:21:20.556Z,14.30
2018-10-01T12:23:48.649Z,14.20
2018-10-01T12:26:16.728Z,14.10
2018-10-01T12:28:44.808Z,13.90
2018-10-01T12:31:12.853Z,13.80
2018-10-01T12:33:41.020Z,13.80
2018-10-01T12:36:09.042Z,13.70
2018-10-01T12:38:37.115Z,13.80
2018-10-01T12:41:05.269Z,13.70
2018-10-01T12:43:33.463Z,13.70
2018-10-01T12:46:01.528Z,13.60
2018-10-01T12:48:29.597Z,13.60
2018-10-01T12:50:57.816Z,13.40
2018-10-01T12:53:25.845Z,13.50
2018-10-01T12:55:53.894Z,13.70
2018-10-01T12:58:21.981Z,13.80
2018-10-01T13:00:50.061Z,13.80
2018-10-01T13:03:18.597Z,13.80
2018-10-01T13:05:46.641Z,13.80
2018-10-01T13:08:14.785Z,13.90
2018-10-01T13:10:42.862Z,14.10
2018-10-01T13:13:10.945Z,14.20
2018-10-01T13:15:39.009Z,14.30
2018-10-01T13:18:07.176Z,14.60
2018-10-01T13:20:35.212Z,14.70
2018-10-01T13:23:03.422Z,14.90
2018-10-01T13:25:31.466Z,15.40
2018-10-01T13:27:59.561Z,15.60
2018-10-01T13:30:27.656Z,15.70
2018-10-01T13:32:55.841Z,15.70
2018-10-01T13:35:23.948Z,15.60
2018-10-01T13:37:52.118Z,15.60
2018-10-01T13:40:20.127Z,15.80
2018-10-01T13:42:48.398Z,16.10
2018-10-01T13:45:16.347Z,16.30
2018-10-01T13:47:44.542Z,16.20
2018-10-01T13:50:12.639Z,16.40
2018-10-01T13:52:40.747Z,16.50
2018-10-01T13:55:08.777Z,16.70
2018-10-01T13:57:37.163Z,16.40
2018-10-01T14:00:05.560Z,16.30
2018-10-01T14:02:33.628Z,16.10
2018-10-01T14:05:01.782Z,15.90
2018-10-01T14:07:30.196Z,15.60
2018-10-01T14:09:58.204Z,15.30
2018-10-01T14:12:26.307Z,15.10
2018-10-01T14:14:54.384Z,14.90
2018-10-01T14:17:22.428Z,14.90
2018-10-01T14:19:50.682Z,14.90
2018-10-01T14:22:18.574Z,15.00
2018-10-01T14:24:46.727Z,15.30
2018-10-01T14:27:14.745Z,15.70
2018-10-01T14:29:42.832Z,16.10
2018-10-01T14:32:10.871Z,16.20
2018-10-01T14:34:39.007Z,16.40
2018-10-01T14:37:07.051Z,16.40
2018-10-01T14:39:35.112Z,15.80
2018-10-01T14:42:03.211Z,15.70
2018-10-01T14:44:31.260Z,15.20
2018-10-01T14:46:59.307Z,15.00
2018-10-01T14:49:27.388Z,14.90
2018-10-01T14:51:55.469Z,14.80
2018-10-01T14:54:23.622Z,14.80
2018-10-01T14:56:51.670Z,14.50
2018-10-01T14:59:19.759Z,14.40
2018-10-01T15:01:47.793Z,14.30
2018-10-01T15:04:15.905Z,14.20
2018-10-01T15:06:43.965Z,14.00
2018-10-01T15:09:12.526Z,14.00
2018-10-01T15:11:40.626Z,14.00
2018-10-01T15:14:08.822Z,13.70
2018-10-01T15:16:36.953Z,13.30
2018-10-01T15:19:05.166Z,13.00
2018-10-01T15:21:33.195Z,12.60
2018-10-01T15:24:01.304Z,12.20
2018-10-01T15:26:29.319Z,11.90
2018-10-01T15:28:57.669Z,11.80
2018-10-01T15:31:25.705Z,11.70
2018-10-01T15:33:53.858Z,11.60
2018-10-01T15:36:21.953Z,11.60
2018-10-01T15:38:50.046Z,11.50
2018-10-01T15:41:18.170Z,11.40
2018-10-01T15:43:46.237Z,11.40
2018-10-01T15:46:14.290Z,11.40
2018-10-01T15:48:42.378Z,11.40
2018-10-01T15:51:10.399Z,11.40
2018-10-01T15:53:38.457Z,11.40
2018-10-01T15:56:06.505Z,11.30
2018-10-01T15:58:34.577Z,11.30
2018-10-01T16:01:02.667Z,11.30
2018-10-01T16:03:30.716Z,11.30
2018-10-01T16:05:58.906Z,11.30
2018-10-01T16:08:26.945Z,11.40
2018-10-01T16:10:55.027Z,11.40
2018-10-01T16:13:23.089Z,11.60
2018-10-01T16:15:51.168Z,12.00
2018-10-01T16:18:19.341Z,12.00
2018-10-01T16:20:47.311Z,12.00
2018-10-01T16:23:15.382Z,12.20
2018-10-01T16:25:43.600Z,12.30
2018-10-01T16:28:11.628Z,12.20
2018-10-01T16:30:39.704Z,12.10
2018-10-01T16:33:07.738Z,12.10
2018-10-01T16:35:35.874Z,12.10
2018-10-01T16:38:04.037Z,12.00
2018-10-01T16:40:32.334Z,11.90
2018-10-01T16:43:00.564Z,11.80
2018-10-01T16:45:28.626Z,11.80
2018-10-01T16:47:57.026Z,11.70
2018-10-01T16:50:25.442Z,11.70
2018-10-01T16:52:53.521Z,11.70
2018-10-01T16:55:21.605Z,11.60
2018-10-01T16:57:49.862Z,11.50
2018-10-01T17:00:17.898Z,11.50
2018-10-01T17:02:46.033Z,11.30
2018-10-01T17:05:14.132Z,11.20
2018-10-01T17:07:42.182Z,11.20
2018-10-01T17:10:10.432Z,11.10
2018-10-01T17:12:38.610Z,11.10
2018-10-01T17:15:06.841Z,11.10
2018-10-01T17:17:34.931Z,11.00
2018-10-01T17:20:04.756Z,11.00
2018-10-01T17:22:33.041Z,11.00
2018-10-01T17:25:01.359Z,11.10
2018-10-01T17:27:29.389Z,11.00
2018-10-01T17:29:57.489Z,11.10
2018-10-01T17:32:25.549Z,11.00
2018-10-01T17:34:53.670Z,11.00
2018-10-01T17:37:21.753Z,11.00
2018-10-01T17:39:49.838Z,11.00
2018-10-01T17:42:17.898Z,11.00
2018-10-01T17:44:46.047Z,10.90
2018-10-01T17:47:14.143Z,10.80
2018-10-01T17:49:42.313Z,10.80
2018-10-01T17:52:10.347Z,10.80
2018-10-01T17:54:38.409Z,10.80
2018-10-01T17:57:06.565Z,10.70
2018-10-01T17:59:34.632Z,10.60
2018-10-01T18:02:02.775Z,10.50
2018-10-01T18:04:30.780Z,10.50
2018-10-01T18:06:58.918Z,10.50
2018-10-01T18:09:26.958Z,10.40
2018-10-01T18:11:55.088Z,10.40
2018-10-01T18:14:23.200Z,10.30
2018-10-01T18:16:51.281Z,10.30
2018-10-01T18:19:19.380Z,10.30
2018-10-01T18:21:47.603Z,10.30
2018-10-01T18:24:15.882Z,10.30
2018-10-01T18:26:43.927Z,10.30
2018-10-01T18:29:11.945Z,10.30
2018-10-01T18:31:40.122Z,10.30
2018-10-01T18:34:08.249Z,10.40
2018-10-01T18:36:36.403Z,10.40
2018-10-01T18:39:07.734Z,10.30
2018-10-01T18:41:35.826Z,10.20
2018-10-01T18:44:04.074Z,10.20
2018-10-01T18:46:32.181Z,10.10
2018-10-01T18:49:00.333Z,10.10
2018-10-01T18:51:28.457Z,10.10
2018-10-01T18:53:56.736Z,10.10
2018-10-01T18:56:24.774Z,10.10
2018-10-01T18:58:52.884Z,10.00
2018-10-01T19:01:21.106Z,10.00
2018-10-01T19:03:49.259Z,9.90
2018-10-01T19:06:17.475Z,9.90
2018-10-01T19:08:45.518Z,9.90
2018-10-01T19:11:13.832Z,9.90
2018-10-01T19:13:41.978Z,9.90
2018-10-01T19:16:10.050Z,9.90
2018-10-01T19:18:38.221Z,9.80
2018-10-01T19:21:06.723Z,9.80
2018-10-01T19:23:34.784Z,9.70
2018-10-01T19:26:03.015Z,9.70
2018-10-01T19:28:31.346Z,9.70
2018-10-01T19:30:59.486Z,9.70
2018-10-01T19:33:27.615Z,9.60
2018-10-01T19:35:55.721Z,9.60
2018-10-01T19:38:24.031Z,9.60
2018-10-01T19:40:52.071Z,9.60
2018-10-01T19:43:20.155Z,9.60
2018-10-01T19:45:48.209Z,9.60
2018-10-01T19:48:16.498Z,9.60
2018-10-01T19:50:44.628Z,9.70
2018-10-01T19:53:12.746Z,9.70
2018-10-01T19:55:40.766Z,9.70
2018-10-01T19:58:08.917Z,9.70
2018-10-01T20:00:37.027Z,9.80
2018-10-01T20:03:05.187Z,9.80
2018-10-01T20:05:33.467Z,9.80
2018-10-01T20:08:01.518Z,9.80
2018-10-01T20:10:29.607Z,9.90
2018-10-01T20:12:57.742Z,9.90
2018-10-01T20:15:25.842Z,9.80
2018-10-01T20:17:53.889Z,9.80
2018-10-01T20:20:22.098Z,9.70
2018-10-01T20:22:50.165Z,9.70
2018-10-01T20:25:18.237Z,9.70
2018-10-01T20:27:46.360Z,9.80
2018-10-01T20:30:14.536Z,9.70
2018-10-01T20:32:42.710Z,9.70
2018-10-01T20:35:10.965Z,9.70
2018-10-01T20:37:39.105Z,9.70
2018-10-01T20:40:07.640Z,9.70
2018-10-01T20:42:35.737Z,9.70
2018-10-01T20:45:04.374Z,9.60
2018-10-01T20:47:32.788Z,9.60
2018-10-01T20:50:01.258Z,9.60
2018-10-01T20:52:29.342Z,9.60
2018-10-01T20:54:57.432Z,9.60
2018-10-01T20:57:25.536Z,9.60
2018-10-01T20:59:53.806Z,9.50
2018-10-01T21:02:21.934Z,9.50
2018-10-01T21:04:49.965Z,9.50
2018-10-01T21:07:18.258Z,9.40
2018-10-01T21:09:46.277Z,9.40
2018-10-01T21:12:14.730Z,9.40
2018-10-01T21:14:42.805Z,9.40
2018-10-01T21:17:10.878Z,9.40
2018-10-01T21:19:39.892Z,9.40
2018-10-01T21:22:08.007Z,9.40
2018-10-01T21:24:36.149Z,9.40
2018-10-01T21:27:04.264Z,9.30
2018-10-01T21:29:32.296Z,9.30
2018-10-01T21:32:00.354Z,9.30
2018-10-01T21:34:28.398Z,9.20
2018-10-01T21:36:56.790Z,9.20
2018-10-01T21:39:32.067Z,9.10
2018-10-01T21:42:00.153Z,9.10
2018-10-01T21:44:28.182Z,9.00
2018-10-01T21:46:56.592Z,9.00
2018-10-01T21:49:24.632Z,8.80
2018-10-01T21:51:52.792Z,8.80
2018-10-01T21:54:20.886Z,8.70
2018-10-01T21:56:48.929Z,8.70
2018-10-01T21:59:17.016Z,8.60
2018-10-01T22:01:45.044Z,8.60
2018-10-01T22:04:13.193Z,8.50
2018-10-01T22:06:41.237Z,8.50
2018-10-01T22:09:09.326Z,8.50
2018-10-01T22:11:37.413Z,8.50
2018-10-01T22:14:05.668Z,8.50
2018-10-01T22:16:33.706Z,8.40
2018-10-01T22:19:01.825Z,8.40
2018-10-01T22:21:29.877Z,8.40
2018-10-01T22:23:57.976Z,8.40
2018-10-01T22:26:26.093Z,8.40
2018-10-01T22:28:54.184Z,8.30
2018-10-01T22:31:22.220Z,8.30
2018-10-01T22:33:50.289Z,8.30
2018-10-01T22:36:18.336Z,8.20
2018-10-01T22:38:46.400Z,8.20
2018-10-01T22:41:14.429Z,8.10
2018-10-01T22:43:42.583Z,8.10
2018-10-01T22:46:10.602Z,8.10
2018-10-01T22:48:38.668Z,8.00
2018-10-01T22:51:06.749Z,8.00
2018-10-01T22:53:34.876Z,7.90
2018-10-01T22:56:02.985Z,7.90
2018-10-01T22:58:31.177Z,7.80
2018-10-01T23:00:59.236Z,7.80
2018-10-01T23:03:27.398Z,7.70
2018-10-01T23:05:55.506Z,7.70
2018-10-01T23:08:23.624Z,7.80
2018-10-01T23:10:51.678Z,7.80
2018-10-01T23:13:19.899Z,7.70
2018-10-01T23:15:47.957Z,7.70
2018-10-01T23:18:16.018Z,7.70
2018-10-01T23:20:44.081Z,7.60
2018-10-01T23:23:12.221Z,7.60
2018-10-01T23:25:40.247Z,7.50
2018-10-01T23:28:08.308Z,7.60
2018-10-01T23:30:36.392Z,7.50
2018-10-01T23:33:04.514Z,7.50
2018-10-01T23:35:32.573Z,7.50
2018-10-01T23:38:00.606Z,7.40
2018-10-01T23:40:28.772Z,7.30
2018-10-01T23:42:56.801Z,7.30
2018-10-01T23:45:24.885Z,7.30
2018-10-01T23:47:52.930Z,7.30
2018-10-01T23:50:21.256Z,7.30
2018-10-01T23:52:49.355Z,7.30
2018-10-01T23:55:17.464Z,7.20
2018-10-01T23:57:45.501Z,7.30
